createdAt,value
2019-04-04T00:01:16.749Z,8.50
2019-04-04T00:03:51.516Z,8.53
2019-04-04T00:06:22.593Z,8.77
2019-04-04T00:08:54.384Z,8.50
2019-04-04T00:11:27.334Z,8.33
2019-04-04T00:13:59.613Z,9.37
2019-04-04T00:16:31.942Z,8.80
2019-04-04T00:19:04.247Z,8.70
2019-04-04T00:21:36.324Z,9.07
2019-04-04T00:24:09.708Z,8.83
2019-04-04T00:26:42.657Z,9.00
2019-04-04T00:29:16.870Z,9.17
2019-04-04T00:31:49.868Z,8.70
2019-04-04T00:34:22.145Z,9.13
2019-04-04T00:36:54.025Z,8.80
2019-04-04T00:39:26.304Z,9.50
2019-04-04T00:41:58.905Z,9.13
2019-04-04T00:44:30.963Z,8.70
2019-04-04T00:47:03.324Z,9.40
2019-04-04T00:49:36.544Z,9.43
2019-04-04T00:52:10.335Z,10.20
2019-04-04T00:54:44.995Z,9.17
2019-04-04T00:57:17.243Z,8.37
2019-04-04T00:59:53.316Z,8.93
2019-04-04T01:02:27.249Z,8.87
2019-04-04T01:05:01.338Z,9.83
2019-04-04T01:07:33.916Z,9.10
2019-04-04T01:10:07.364Z,9.60
2019-04-04T01:12:39.854Z,9.20
2019-04-04T01:15:13.758Z,8.97
2019-04-04T01:17:46.015Z,8.63
2019-04-04T01:20:18.081Z,9.33
2019-04-04T01:22:51.755Z,8.53
2019-04-04T01:25:23.954Z,9.10
2019-04-04T01:27:56.326Z,9.43
2019-04-04T01:30:28.804Z,8.60
2019-04-04T01:33:03.579Z,8.50
2019-04-04T01:35:35.232Z,8.23
2019-04-04T01:38:07.664Z,8.70
2019-04-04T01:40:40.344Z,8.93
2019-04-04T01:43:12.504Z,8.23
2019-04-04T01:45:44.959Z,8.27
2019-04-04T01:48:18.802Z,8.83
2019-04-04T01:50:53.427Z,8.83
2019-04-04T01:53:25.064Z,8.87
2019-04-04T01:55:57.554Z,8.40
2019-04-04T01:58:29.616Z,8.87
2019-04-04T02:01:01.575Z,8.67
2019-04-04T02:03:33.835Z,8.93
2019-04-04T02:06:06.103Z,8.53
2019-04-04T02:08:37.934Z,9.00
2019-04-04T02:11:10.036Z,8.30
2019-04-04T02:13:41.909Z,8.90
2019-04-04T02:16:14.945Z,9.00
2019-04-04T02:18:47.673Z,9.03
2019-04-04T02:21:19.554Z,9.00
2019-04-04T02:23:51.511Z,8.40
2019-04-04T02:26:23.902Z,8.50
2019-04-04T02:28:55.835Z,8.80
2019-04-04T02:31:29.536Z,8.90
2019-04-04T02:34:05.387Z,8.43
2019-04-04T02:36:35.407Z,8.50
2019-04-04T02:39:14.986Z,9.00
2019-04-04T02:41:48.397Z,8.47
2019-04-04T02:44:21.126Z,8.80
2019-04-04T02:46:52.917Z,8.47
2019-04-04T02:49:28.100Z,8.77
2019-04-04T02:51:58.535Z,8.33
2019-04-04T02:54:30.577Z,8.50
2019-04-04T02:57:03.082Z,8.57
2019-04-04T02:59:35.048Z,9.03
2019-04-04T03:02:06.913Z,8.47
2019-04-04T03:04:38.874Z,8.63
2019-04-04T03:07:10.826Z,8.43
2019-04-04T03:09:43.750Z,8.77
2019-04-04T03:12:16.262Z,8.17
2019-04-04T03:14:50.582Z,8.93
2019-04-04T03:17:21.975Z,7.90
2019-04-04T03:19:53.845Z,9.03
2019-04-04T03:22:27.496Z,8.63
2019-04-04T03:25:00.514Z,9.57
2019-04-04T03:27:32.982Z,8.37
2019-04-04T03:30:13.586Z,8.80
2019-04-04T03:32:39.986Z,8.63
2019-04-04T03:35:12.162Z,8.47
2019-04-04T03:37:46.376Z,8.17
2019-04-04T03:40:18.724Z,8.03
2019-04-04T03:42:50.786Z,9.10
2019-04-04T03:45:25.991Z,8.73
2019-04-04T03:47:56.356Z,8.07
2019-04-04T03:50:30.118Z,9.20
2019-04-04T03:53:02.142Z,8.67
2019-04-04T03:55:34.174Z,8.13
2019-04-04T03:58:06.366Z,8.83
2019-04-04T04:00:40.292Z,8.63
2019-04-04T04:03:11.846Z,8.33
2019-04-04T04:05:43.875Z,9.30
2019-04-04T04:08:15.646Z,8.87
2019-04-04T04:10:47.613Z,8.57
2019-04-04T04:13:19.645Z,8.73
2019-04-04T04:15:51.774Z,8.47
2019-04-04T04:18:24.861Z,8.83
2019-04-04T04:20:56.936Z,9.10
2019-04-04T04:23:28.985Z,8.83
2019-04-04T04:26:00.874Z,9.87
2019-04-04T04:28:33.285Z,8.03
2019-04-04T04:31:05.345Z,8.83
2019-04-04T04:33:38.302Z,8.83
2019-04-04T04:36:14.695Z,8.43
2019-04-04T04:38:43.916Z,8.93
2019-04-04T04:41:19.754Z,8.10
2019-04-04T04:43:50.646Z,8.40
2019-04-04T04:46:22.666Z,8.77
2019-04-04T04:48:54.584Z,8.40
2019-04-04T04:51:26.785Z,8.60
2019-04-04T04:53:58.644Z,8.90
2019-04-04T04:56:31.296Z,8.80
2019-04-04T04:59:04.546Z,7.90
2019-04-04T05:01:36.452Z,9.43
2019-04-04T05:04:08.234Z,9.10
2019-04-04T05:06:40.304Z,8.80
2019-04-04T05:09:14.058Z,8.60
2019-04-04T05:11:49.859Z,8.90
2019-04-04T05:14:20.175Z,8.17
2019-04-04T05:16:52.144Z,7.83
2019-04-04T05:19:24.114Z,7.80
2019-04-04T05:21:56.295Z,8.27
2019-04-04T05:24:28.342Z,8.37
2019-04-04T05:27:00.333Z,8.53
2019-04-04T05:29:33.196Z,9.17
2019-04-04T05:32:05.355Z,8.60
2019-04-04T05:34:37.338Z,9.07
2019-04-04T05:37:09.477Z,8.40
2019-04-04T05:39:41.394Z,7.97
2019-04-04T05:42:13.409Z,8.70
2019-04-04T05:44:47.124Z,8.53
2019-04-04T05:47:19.104Z,8.53
2019-04-04T05:49:51.044Z,8.70
2019-04-04T05:52:22.964Z,8.53
2019-04-04T05:54:54.860Z,9.00
2019-04-04T05:57:26.841Z,8.07
2019-04-04T05:59:59.184Z,8.50
2019-04-04T06:02:31.167Z,9.00
2019-04-04T06:05:05.016Z,9.10
2019-04-04T06:07:37.281Z,9.03
2019-04-04T06:10:11.823Z,9.40
2019-04-04T06:12:43.104Z,8.60
2019-04-04T06:15:15.078Z,9.53
2019-04-04T06:17:47.013Z,8.53
2019-04-04T06:20:18.886Z,9.07
2019-04-04T06:22:51.984Z,8.07
2019-04-04T06:25:24.870Z,8.07
2019-04-04T06:27:56.823Z,8.20
2019-04-04T06:30:42.274Z,9.40
2019-04-04T06:33:04.858Z,8.80
2019-04-04T06:35:39.688Z,8.83
2019-04-04T06:38:10.665Z,9.80
2019-04-04T06:40:42.545Z,8.83
2019-04-04T06:43:14.653Z,9.10
2019-04-04T06:45:47.558Z,9.10
2019-04-04T06:48:19.544Z,9.17
2019-04-04T06:50:51.767Z,8.97
2019-04-04T06:53:23.924Z,8.80
2019-04-04T06:55:55.994Z,8.47
2019-04-04T06:58:28.054Z,8.93
2019-04-04T07:01:00.253Z,8.47
2019-04-04T07:03:32.183Z,9.33
2019-04-04T07:06:04.154Z,8.57
2019-04-04T07:08:36.203Z,9.40
2019-04-04T07:11:20.578Z,9.30
2019-04-04T07:13:42.957Z,9.20
2019-04-04T07:16:15.279Z,8.77
2019-04-04T07:18:47.352Z,8.87
2019-04-04T07:21:20.206Z,8.57
2019-04-04T07:23:52.904Z,9.60
2019-04-04T07:26:24.869Z,9.60
2019-04-04T07:28:57.038Z,9.47
2019-04-04T07:31:33.196Z,9.30
2019-04-04T07:34:03.175Z,8.80
2019-04-04T07:36:34.972Z,9.20
2019-04-04T07:39:07.385Z,9.20
2019-04-04T07:41:40.720Z,10.60
2019-04-04T07:44:13.937Z,9.67
2019-04-04T07:46:46.123Z,9.23
2019-04-04T07:49:18.166Z,9.67
2019-04-04T07:51:50.132Z,9.63
2019-04-04T07:54:22.084Z,9.93
2019-04-04T07:56:53.963Z,9.90
2019-04-04T07:59:26.114Z,9.50
2019-04-04T08:01:58.473Z,9.50
2019-04-04T08:04:30.474Z,9.80
2019-04-04T08:07:02.404Z,9.07
2019-04-04T08:09:34.574Z,9.97
2019-04-04T08:12:06.434Z,10.43
2019-04-04T08:14:38.360Z,9.73
2019-04-04T08:17:10.362Z,9.57
2019-04-04T08:19:42.658Z,9.33
2019-04-04T08:22:14.715Z,9.43
2019-04-04T08:24:46.764Z,9.60
2019-04-04T08:27:18.614Z,9.63
2019-04-04T08:29:50.574Z,9.77
2019-04-04T08:32:22.951Z,8.80
2019-04-04T08:34:54.944Z,9.37
2019-04-04T08:37:26.784Z,8.93
2019-04-04T08:39:58.834Z,9.37
2019-04-04T08:42:30.596Z,9.50
2019-04-04T08:45:05.304Z,9.03
2019-04-04T08:47:37.290Z,9.73
2019-04-04T08:50:10.476Z,9.30
2019-04-04T08:52:42.283Z,9.87
2019-04-04T08:55:14.237Z,9.33
2019-04-04T08:57:46.004Z,9.03
2019-04-04T09:00:18.154Z,9.37
2019-04-04T09:02:50.503Z,9.00
2019-04-04T09:05:22.679Z,9.60
2019-04-04T09:07:54.524Z,9.77
2019-04-04T09:10:26.414Z,9.60
2019-04-04T09:12:58.284Z,9.47
2019-04-04T09:15:30.504Z,9.00
2019-04-04T09:18:02.375Z,9.50
2019-04-04T09:20:34.434Z,9.30
2019-04-04T09:23:06.413Z,9.77
2019-04-04T09:25:40.827Z,9.33
2019-04-04T09:28:12.574Z,9.30
2019-04-04T09:30:44.545Z,9.60
2019-04-04T09:33:17.052Z,9.53
2019-04-04T09:35:48.986Z,9.23
2019-04-04T09:38:20.804Z,10.13
2019-04-04T09:40:52.904Z,10.03
2019-04-04T09:43:24.695Z,9.30
2019-04-04T09:45:56.539Z,10.13
2019-04-04T09:48:28.784Z,9.70
2019-04-04T09:51:00.744Z,9.83
2019-04-04T09:53:33.034Z,9.30
2019-04-04T09:56:05.093Z,9.27
2019-04-04T09:58:37.084Z,10.50
2019-04-04T10:01:10.444Z,9.30
2019-04-04T10:03:43.744Z,9.03
2019-04-04T10:06:15.705Z,10.40
2019-04-04T10:08:47.466Z,10.20
2019-04-04T10:11:19.525Z,9.80
2019-04-04T10:13:51.445Z,9.93
2019-04-04T10:16:23.374Z,9.70
2019-04-04T10:18:55.206Z,9.73
2019-04-04T10:21:27.176Z,10.30
2019-04-04T10:23:58.944Z,9.40
2019-04-04T10:26:30.814Z,10.40
2019-04-04T10:29:02.754Z,11.10
2019-04-04T10:31:34.824Z,10.23
2019-04-04T10:34:08.432Z,9.93
2019-04-04T10:36:40.485Z,10.77
2019-04-04T10:39:12.783Z,11.00
2019-04-04T10:41:44.924Z,10.67
2019-04-04T10:44:16.895Z,11.17
2019-04-04T10:46:48.917Z,10.60
2019-04-04T10:49:22.036Z,9.53
2019-04-04T10:51:54.114Z,9.40
2019-04-04T10:54:26.173Z,10.00
2019-04-04T10:56:58.134Z,9.97
2019-04-04T10:59:30.209Z,9.90
2019-04-04T11:02:02.264Z,10.03
2019-04-04T11:04:34.524Z,10.20
2019-04-04T11:07:06.484Z,9.97
2019-04-04T11:09:42.249Z,9.90
2019-04-04T11:12:12.625Z,10.00
2019-04-04T11:14:44.525Z,10.07
2019-04-04T11:17:16.694Z,10.53
2019-04-04T11:19:48.556Z,10.17
2019-04-04T11:22:20.826Z,10.07
2019-04-04T11:24:53.105Z,10.10
2019-04-04T11:27:25.035Z,10.10
2019-04-04T11:29:56.914Z,10.17
2019-04-04T11:32:30.105Z,10.40
2019-04-04T11:35:03.344Z,9.87
2019-04-04T11:37:36.696Z,9.80
2019-04-04T11:40:08.654Z,9.63
2019-04-04T11:42:40.793Z,9.47
2019-04-04T11:45:12.692Z,9.93
2019-04-04T11:47:44.644Z,10.80
2019-04-04T11:50:17.287Z,10.23
2019-04-04T11:52:49.398Z,10.37
2019-04-04T11:55:21.248Z,9.87
2019-04-04T11:57:53.204Z,9.93
2019-04-04T12:00:29.700Z,9.57
2019-04-04T12:03:01.584Z,9.87
2019-04-04T12:05:33.834Z,9.87
2019-04-04T12:08:05.718Z,9.40
2019-04-04T12:10:38.064Z,9.80
2019-04-04T12:13:10.326Z,9.73
2019-04-04T12:15:42.513Z,10.10
2019-04-04T12:18:14.357Z,10.23
2019-04-04T12:20:46.114Z,9.63
2019-04-04T12:23:18.264Z,9.70
2019-04-04T12:25:50.224Z,9.80
2019-04-04T12:28:22.294Z,10.03
2019-04-04T12:30:54.154Z,10.70
2019-04-04T12:33:26.424Z,9.83
2019-04-04T12:36:00.025Z,9.47
2019-04-04T12:38:31.984Z,10.10
2019-04-04T12:41:04.054Z,9.57
2019-04-04T12:43:36.323Z,9.50
2019-04-04T12:46:08.201Z,9.60
2019-04-04T12:48:40.124Z,9.77
2019-04-04T12:51:12.314Z,18.17
2019-04-04T12:53:44.484Z,9.87
2019-04-04T12:56:16.334Z,10.00
2019-04-04T12:58:48.816Z,9.20
2019-04-04T13:01:21.477Z,9.40
2019-04-04T13:03:53.972Z,10.13
2019-04-04T13:06:26.244Z,10.00
2019-04-04T13:08:58.914Z,9.30
2019-04-04T13:11:30.995Z,9.53
2019-04-04T13:14:03.045Z,10.07
2019-04-04T13:16:34.914Z,9.50
2019-04-04T13:19:06.822Z,9.10
2019-04-04T13:21:38.835Z,10.00
2019-04-04T13:24:10.855Z,9.50
2019-04-04T13:26:42.654Z,9.67
2019-04-04T13:29:14.504Z,9.83
2019-04-04T13:31:46.388Z,9.70
2019-04-04T13:34:18.344Z,9.67
2019-04-04T13:36:50.228Z,9.50
2019-04-04T13:39:22.075Z,9.57
2019-04-04T13:41:54.435Z,9.97
2019-04-04T13:44:26.275Z,9.37
2019-04-04T13:46:58.063Z,10.60
2019-04-04T13:49:30.114Z,10.03
2019-04-04T13:52:01.974Z,9.73
2019-04-04T13:54:34.034Z,9.33
2019-04-04T13:57:05.807Z,9.73
2019-04-04T13:59:37.766Z,9.73
2019-04-04T14:02:09.614Z,8.83
2019-04-04T14:04:42.038Z,10.10
2019-04-04T14:07:13.954Z,10.07
2019-04-04T14:09:47.656Z,10.90
2019-04-04T14:12:20.124Z,9.60
2019-04-04T14:14:52.112Z,9.20
2019-04-04T14:17:23.954Z,9.60
2019-04-04T14:19:55.911Z,9.83
2019-04-04T14:22:27.993Z,10.20
2019-04-04T14:25:00.044Z,9.93
2019-04-04T14:27:31.906Z,10.20
2019-04-04T14:30:07.165Z,10.17
2019-04-04T14:32:38.945Z,10.70
2019-04-04T14:35:11.074Z,10.30
2019-04-04T14:37:43.044Z,9.97
2019-04-04T14:40:15.195Z,11.30
2019-04-04T14:42:47.875Z,10.40
2019-04-04T14:45:20.155Z,10.10
2019-04-04T14:47:52.104Z,10.67
2019-04-04T14:50:24.195Z,11.07
2019-04-04T14:52:56.134Z,11.03
2019-04-04T14:55:28.133Z,10.77
2019-04-04T14:58:00.174Z,11.60
2019-04-04T15:00:32.235Z,10.93
2019-04-04T15:03:04.295Z,10.70
2019-04-04T15:05:36.362Z,10.83
2019-04-04T15:08:08.466Z,9.97
2019-04-04T15:10:40.844Z,11.17
2019-04-04T15:13:13.184Z,11.83
2019-04-04T15:16:10.834Z,11.20
2019-04-04T15:18:42.613Z,11.17
2019-04-04T15:21:15.699Z,10.93
2019-04-04T15:23:47.679Z,11.00
2019-04-04T15:26:19.825Z,11.90
2019-04-04T15:28:51.997Z,10.67
2019-04-04T15:31:24.052Z,10.83
2019-04-04T15:33:56.025Z,10.87
2019-04-04T15:36:27.964Z,11.43
2019-04-04T15:39:00.234Z,11.77
2019-04-04T15:41:37.299Z,11.10
2019-04-04T15:44:06.045Z,11.37
2019-04-04T15:46:37.991Z,12.00
2019-04-04T15:49:10.120Z,11.97
2019-04-04T15:51:42.313Z,10.33
2019-04-04T15:54:14.262Z,11.83
2019-04-04T15:56:46.324Z,11.77
2019-04-04T15:59:18.412Z,11.90
2019-04-04T16:01:50.664Z,10.03
2019-04-04T16:04:22.434Z,10.67
2019-04-04T16:06:54.586Z,10.00
2019-04-04T16:09:26.445Z,10.53
2019-04-04T16:11:58.851Z,10.40
2019-04-04T16:14:31.285Z,10.17
2019-04-04T16:17:03.364Z,9.93
2019-04-04T16:19:35.534Z,12.50
2019-04-04T16:22:07.565Z,11.47
2019-04-04T16:24:39.624Z,10.83
2019-04-04T16:27:11.768Z,11.07
2019-04-04T16:29:44.272Z,17.97
2019-04-04T16:32:16.979Z,10.87
2019-04-04T16:34:48.988Z,10.93
2019-04-04T16:37:23.363Z,10.97
2019-04-04T16:40:07.944Z,10.67
2019-04-04T16:42:29.197Z,11.30
2019-04-04T16:45:01.752Z,10.63
2019-04-04T16:47:35.672Z,10.67
2019-04-04T16:50:07.952Z,11.17
2019-04-04T16:52:39.843Z,11.60
2019-04-04T16:55:11.599Z,11.43
2019-04-04T16:57:43.736Z,10.80
2019-04-04T17:00:15.651Z,12.33
2019-04-04T17:02:47.558Z,11.27
2019-04-04T17:05:20.686Z,13.40
2019-04-04T17:07:52.967Z,12.17
2019-04-04T17:10:27.917Z,12.47
2019-04-04T17:13:00.164Z,12.43
2019-04-04T17:15:33.544Z,12.67
2019-04-04T17:18:05.432Z,13.23
2019-04-04T17:20:37.475Z,12.83
2019-04-04T17:23:09.444Z,12.80
2019-04-04T17:25:41.231Z,12.50
2019-04-04T17:28:13.124Z,14.37
2019-04-04T17:30:45.333Z,13.37
2019-04-04T17:33:17.365Z,13.90
2019-04-04T17:35:49.606Z,14.97
2019-04-04T17:38:21.795Z,14.93
2019-04-04T17:40:53.558Z,15.30
2019-04-04T17:43:26.547Z,15.30
2019-04-04T17:45:58.764Z,15.10
2019-04-04T17:48:32.641Z,16.07
2019-04-04T17:51:04.472Z,15.07
2019-04-04T17:53:36.404Z,15.07
2019-04-04T17:56:08.561Z,17.13
2019-04-04T17:58:40.994Z,16.03
2019-04-04T18:01:13.399Z,13.10
2019-04-04T18:03:45.864Z,13.40
2019-04-04T18:06:17.714Z,12.97
2019-04-04T18:08:49.793Z,12.30
2019-04-04T18:11:21.563Z,13.33
2019-04-04T18:13:53.810Z,12.60
2019-04-04T18:16:26.214Z,20.10
2019-04-04T18:18:58.576Z,13.67
2019-04-04T18:21:30.631Z,13.27
2019-04-04T18:24:02.645Z,12.87
2019-04-04T18:26:34.724Z,12.20
2019-04-04T18:29:07.176Z,16.23
2019-04-04T18:31:39.550Z,14.07
2019-04-04T18:34:12.041Z,20.00
2019-04-04T18:36:44.143Z,17.40
2019-04-04T18:39:16.174Z,14.63
2019-04-04T18:41:48.154Z,17.57
2019-04-04T18:44:20.148Z,13.33
2019-04-04T18:46:52.802Z,17.17
2019-04-04T18:49:24.965Z,14.43
2019-04-04T18:51:56.973Z,12.83
2019-04-04T18:54:29.107Z,25.27
2019-04-04T18:57:00.956Z,12.63
2019-04-04T18:59:33.225Z,12.43
2019-04-04T19:02:05.222Z,16.07
2019-04-04T19:04:37.265Z,13.97
2019-04-04T19:07:09.330Z,12.03
2019-04-04T19:09:41.510Z,13.10
2019-04-04T19:12:13.666Z,15.23
2019-04-04T19:14:46.334Z,12.37
2019-04-04T19:17:19.016Z,23.97
2019-04-04T19:19:50.974Z,12.90
2019-04-04T19:22:22.724Z,11.67
2019-04-04T19:24:55.105Z,12.73
2019-04-04T19:27:26.974Z,12.03
2019-04-04T19:29:59.147Z,13.47
2019-04-04T19:32:30.974Z,11.13
2019-04-04T19:35:05.513Z,13.47
2019-04-04T19:37:38.294Z,13.00
2019-04-04T19:40:10.199Z,11.77
2019-04-04T19:42:42.032Z,14.07
2019-04-04T19:45:14.598Z,14.63
2019-04-04T19:47:46.867Z,11.67
2019-04-04T19:50:19.143Z,12.07
2019-04-04T19:52:51.317Z,11.63
2019-04-04T19:55:23.689Z,12.10
2019-04-04T19:57:55.862Z,11.90
2019-04-04T20:00:28.114Z,12.80
2019-04-04T20:03:00.157Z,11.50
2019-04-04T20:05:32.552Z,11.33
2019-04-04T20:08:04.405Z,10.63
2019-04-04T20:10:36.674Z,11.87
2019-04-04T20:13:08.645Z,10.73
2019-04-04T20:15:41.873Z,12.40
2019-04-04T20:18:14.504Z,12.00
2019-04-04T20:20:46.625Z,13.20
2019-04-04T20:23:18.505Z,12.80
2019-04-04T20:25:50.821Z,13.60
2019-04-04T20:28:23.084Z,13.87
2019-04-04T20:30:55.563Z,12.93
2019-04-04T20:33:27.957Z,12.33
2019-04-04T20:36:00.136Z,12.33
2019-04-04T20:38:32.352Z,11.50
2019-04-04T20:41:05.007Z,12.17
2019-04-04T20:43:43.151Z,12.40
2019-04-04T20:46:11.117Z,12.23
2019-04-04T20:48:43.484Z,12.90
2019-04-04T20:51:15.874Z,13.07
2019-04-04T20:53:47.854Z,11.50
2019-04-04T20:56:19.744Z,12.43
2019-04-04T20:58:51.520Z,12.20
2019-04-04T21:01:23.365Z,11.43
2019-04-04T21:03:55.205Z,11.50
2019-04-04T21:06:27.292Z,12.43
2019-04-04T21:08:59.297Z,13.67
2019-04-04T21:11:31.144Z,12.03
2019-04-04T21:14:03.214Z,11.23
2019-04-04T21:16:35.803Z,11.53
2019-04-04T21:19:07.985Z,11.97
2019-04-04T21:21:40.226Z,12.20
2019-04-04T21:24:12.499Z,14.30
2019-04-04T21:26:44.874Z,12.00
2019-04-04T21:29:16.946Z,13.07
2019-04-04T21:31:49.304Z,11.33
2019-04-04T21:34:21.229Z,11.57
2019-04-04T21:36:53.652Z,11.90
2019-04-04T21:39:25.732Z,11.07
2019-04-04T21:41:57.974Z,11.23
2019-04-04T21:44:31.264Z,10.97
2019-04-04T21:47:03.485Z,12.33
2019-04-04T21:49:36.029Z,11.53
2019-04-04T21:52:08.185Z,11.57
2019-04-04T21:54:40.185Z,10.60
2019-04-04T21:57:12.422Z,11.83
2019-04-04T21:59:44.274Z,11.70
2019-04-04T22:02:16.345Z,11.27
2019-04-04T22:04:48.309Z,11.47
2019-04-04T22:07:46.864Z,11.30
2019-04-04T22:10:38.808Z,10.00
2019-04-04T22:13:13.144Z,11.10
2019-04-04T22:15:45.144Z,10.60
2019-04-04T22:18:17.424Z,10.67
2019-04-04T22:20:49.945Z,10.43
2019-04-04T22:23:22.117Z,11.30
2019-04-04T22:25:54.025Z,11.03
2019-04-04T22:28:25.954Z,10.77
2019-04-04T22:30:57.875Z,10.93
2019-04-04T22:33:29.844Z,11.63
2019-04-04T22:36:01.825Z,10.47
2019-04-04T22:38:33.810Z,10.17
2019-04-04T22:41:05.814Z,10.47
2019-04-04T22:43:38.744Z,10.37
2019-04-04T22:46:12.164Z,10.30
2019-04-04T22:48:44.355Z,10.57
2019-04-04T22:51:18.004Z,10.20
2019-04-04T22:53:50.144Z,11.10
2019-04-04T22:56:23.374Z,10.27
2019-04-04T22:58:56.564Z,11.13
2019-04-04T23:01:29.358Z,10.73
2019-04-04T23:04:02.634Z,10.27
2019-04-04T23:06:35.044Z,11.00
2019-04-04T23:09:08.195Z,10.70
2019-04-04T23:11:40.798Z,10.63
2019-04-04T23:14:13.854Z,11.27
2019-04-04T23:16:47.074Z,13.57
2019-04-04T23:19:20.544Z,13.00
2019-04-04T23:21:54.152Z,11.43
2019-04-04T23:24:27.324Z,15.40
2019-04-04T23:26:59.278Z,12.97
2019-04-04T23:29:31.424Z,12.80
2019-04-04T23:32:05.634Z,10.40
2019-04-04T23:34:38.384Z,14.70
2019-04-04T23:37:11.504Z,12.90
2019-04-04T23:39:44.124Z,11.40
2019-04-04T23:42:17.135Z,10.47
2019-04-04T23:45:00.343Z,11.37
2019-04-04T23:47:25.440Z,10.13
2019-04-04T23:49:58.733Z,10.90
2019-04-04T23:52:32.354Z,13.60
2019-04-04T23:55:05.103Z,10.33
2019-04-04T23:57:37.195Z,10.97
